Time;durP1;ratioP1;P1;durP2;ratioP2;P2;SDS_P1;SDS_P2;PMS_P1;PMS_P2;Temp;Humidity;BMP_temperature;BMP_pressure;BME280_temperature;BME280_humidity;BME280_pressure;Samples;Min_cycle;Max_cycle;Signal;HPM_P1;HPM_P2
2021/04/16 00:02:00;;;;;;;11.77;2.05;;;4.20;99.90;;;;;;4994151;28;20050;-91
2021/04/16 00:04:25;;;;;;;11.88;2.30;;;4.30;99.90;;;;;;4978676;28;20113;-93
2021/04/16 00:06:51;;;;;;;16.92;2.70;;;4.60;99.90;;;;;;4995185;28;20050;-92
2021/04/16 00:09:17;;;;;;;11.82;2.13;;;4.20;99.90;;;;;;4994648;28;20121;-90
2021/04/16 00:11:43;;;;;;;7.32;2.65;;;4.10;99.90;;;;;;4995173;28;20038;-93
2021/04/16 00:14:11;;;;;;;5.68;1.92;;;4.00;99.90;;;;;;4962939;28;20390;-91
2021/04/16 00:16:38;;;;;;;14.57;3.33;;;4.00;99.90;;;;;;4994608;28;20045;-92
2021/04/16 00:19:04;;;;;;;10.70;3.03;;;4.10;99.90;;;;;;4979041;28;20413;-94
2021/04/16 00:21:30;;;;;;;18.05;3.38;;;4.30;99.90;;;;;;4995845;28;20050;-93
2021/04/16 00:23:56;;;;;;;13.20;3.08;;;4.10;99.90;;;;;;4996276;28;20095;-93
2021/04/16 00:26:22;;;;;;;9.13;2.45;;;4.50;99.90;;;;;;4994890;28;20045;-93
2021/04/16 00:28:48;;;;;;;10.00;2.60;;;4.10;99.90;;;;;;4991796;28;20058;-94
2021/04/16 00:31:24;;;;;;;11.70;2.33;;;4.10;99.90;;;;;;4977827;28;20731;-92
2021/04/16 00:33:52;;;;;;;9.35;2.45;;;4.10;99.90;;;;;;4994314;28;20049;-90
2021/04/16 00:36:19;;;;;;;17.55;3.33;;;4.00;99.90;;;;;;4993614;28;20054;-90
2021/04/16 00:38:47;;;;;;;8.95;2.40;;;4.00;99.90;;;;;;4994158;28;20061;-93
2021/04/16 00:41:17;;;;;;;10.40;2.78;;;4.00;99.90;;;;;;4995562;28;20810;-90
2021/04/16 00:43:44;;;;;;;17.40;3.10;;;4.00;99.90;;;;;;4994514;28;20125;-90
2021/04/16 00:46:12;;;;;;;13.77;2.53;;;4.00;99.90;;;;;;4995112;28;20048;-90
2021/04/16 00:48:45;;;;;;;17.92;3.90;;;4.00;99.90;;;;;;4988187;28;20657;-90
2021/04/16 00:51:37;;;;;;;8.52;2.90;;;4.00;99.90;;;;;;4985380;28;20041;-91
2021/04/16 00:54:05;;;;;;;23.77;3.47;;;4.00;99.90;;;;;;4973500;28;20070;-92
2021/04/16 00:56:31;;;;;;;14.02;3.15;;;3.90;99.90;;;;;;4978281;28;20400;-91
2021/04/16 00:58:58;;;;;;;16.00;3.30;;;4.00;99.90;;;;;;5011254;28;20045;-91
2021/04/16 01:01:27;;;;;;;14.20;2.83;;;4.20;99.90;;;;;;4992701;28;20073;-94
2021/04/16 01:03:53;;;;;;;13.07;3.58;;;4.20;99.90;;;;;;5012061;28;20083;-92
2021/04/16 01:06:21;;;;;;;21.98;4.97;;;4.10;99.90;;;;;;4979220;28;20501;-92
2021/04/16 01:08:47;;;;;;;25.33;3.88;;;4.30;99.90;;;;;;4994636;28;20104;-93
2021/04/16 01:11:16;;;;;;;21.33;4.57;;;4.10;99.90;;;;;;4995332;28;20037;-94
2021/04/16 01:13:44;;;;;;;20.25;4.03;;;4.10;99.90;;;;;;4958583;28;20113;-91
2021/04/16 01:16:13;;;;;;;14.15;3.28;;;4.50;99.90;;;;;;4976902;28;20050;-92
2021/04/16 01:18:42;;;;;;;18.48;3.47;;;4.10;99.90;;;;;;4993892;28;20077;-93
2021/04/16 01:21:16;;;;;;;13.52;3.72;;;4.10;99.90;;;;;;4995110;28;20065;-91
2021/04/16 01:24:11;;;;;;;13.35;3.25;;;4.20;99.90;;;;;;4977779;28;20649;-91
2021/04/16 01:26:39;;;;;;;21.50;3.63;;;4.20;99.90;;;;;;4993120;28;20137;-92
2021/04/16 01:29:05;;;;;;;10.85;3.15;;;4.10;99.90;;;;;;4994701;28;20053;-91
2021/04/16 01:31:33;;;;;;;20.80;3.72;;;4.10;99.90;;;;;;4978158;28;20413;-91
2021/04/16 01:33:59;;;;;;;12.30;3.55;;;4.10;99.90;;;;;;4978647;28;20046;-93
2021/04/16 01:36:32;;;;;;;13.68;3.40;;;4.10;99.90;;;;;;5010546;28;20054;-91
2021/04/16 01:38:59;;;;;;;7.93;3.72;;;4.10;99.90;;;;;;4978243;28;20148;-93
2021/04/16 01:41:27;;;;;;;19.20;4.32;;;4.10;99.90;;;;;;4993514;28;20120;-91
2021/04/16 01:44:15;;;;;;;8.98;2.65;;;4.10;99.90;;;;;;5011859;28;20076;-93
2021/04/16 01:47:06;;;;;;;24.13;5.18;;;4.10;99.90;;;;;;4994328;28;20041;-94
2021/04/16 01:49:43;;;;;;;17.25;3.35;;;4.10;99.90;;;;;;4977816;28;20058;-92
2021/04/16 01:52:16;;;;;;;14.43;2.95;;;4.60;99.90;;;;;;4978649;28;20042;-93
2021/04/16 01:54:45;;;;;;;10.18;3.10;;;4.20;99.90;;;;;;4993690;28;20801;-92
2021/04/16 01:57:22;;;;;;;22.52;3.85;;;4.40;99.90;;;;;;4994641;28;20052;-93
2021/04/16 02:00:11;;;;;;;15.95;4.53;;;4.20;99.90;;;;;;4996810;28;20068;-94
2021/04/16 02:02:37;;;;;;;12.75;3.33;;;4.10;99.90;;;;;;4994923;28;20132;-94
2021/04/16 02:05:05;;;;;;;15.82;3.65;;;4.10;99.90;;;;;;4978718;28;20184;-94
2021/04/16 02:07:31;;;;;;;17.67;3.15;;;4.10;99.90;;;;;;4994059;28;20476;-94
2021/04/16 02:09:57;;;;;;;16.23;3.78;;;4.20;99.90;;;;;;4994863;28;20149;-95
2021/04/16 02:12:24;;;;;;;14.90;3.78;;;4.00;99.90;;;;;;4993998;28;20053;-94
2021/04/16 02:14:51;;;;;;;14.73;3.72;;;4.10;99.90;;;;;;4978404;28;20413;-94
2021/04/16 02:17:28;;;;;;;14.15;3.42;;;4.00;99.90;;;;;;4974964;28;20116;-94
2021/04/16 02:19:57;;;;;;;19.92;3.75;;;4.10;99.90;;;;;;4978224;28;20394;-93
2021/04/16 02:22:25;;;;;;;19.75;3.58;;;4.00;99.90;;;;;;4994170;28;20046;-93
2021/04/16 02:24:51;;;;;;;26.30;4.35;;;4.00;99.90;;;;;;4978120;28;20104;-95
2021/04/16 02:27:27;;;;;;;20.35;2.92;;;4.00;99.90;;;;;;4994278;28;20049;-94
2021/04/16 02:29:55;;;;;;;18.40;3.05;;;4.00;99.90;;;;;;4978967;28;20484;-92
2021/04/16 02:32:21;;;;;;;15.40;3.10;;;4.00;99.90;;;;;;4993828;28;20050;-92
2021/04/16 02:34:48;;;;;;;19.85;3.42;;;4.00;99.90;;;;;;4993331;28;20045;-92
2021/04/16 02:37:18;;;;;;;26.85;3.67;;;4.00;99.90;;;;;;4977743;28;20141;-93
2021/04/16 02:39:44;;;;;;;16.95;2.72;;;4.00;99.90;;;;;;4977152;28;20062;-94
2021/04/16 02:42:10;;;;;;;11.18;2.42;;;4.00;99.90;;;;;;4993716;28;20049;-92
2021/04/16 02:44:47;;;;;;;16.52;2.92;;;4.00;99.90;;;;;;4992895;28;20064;-94
2021/04/16 02:47:16;;;;;;;14.80;2.65;;;4.00;99.90;;;;;;4993829;28;20061;-92
2021/04/16 02:49:42;;;;;;;14.50;2.60;;;4.00;99.90;;;;;;5010510;28;20077;-92
2021/04/16 02:52:09;;;;;;;15.85;2.70;;;4.00;99.90;;;;;;4993658;28;20092;-94
2021/04/16 02:54:34;;;;;;;22.95;4.95;;;4.40;99.90;;;;;;5010487;28;20046;-94
2021/04/16 02:57:00;;;;;;;15.13;2.25;;;3.90;99.90;;;;;;4974448;28;20117;-92
2021/04/16 02:59:32;;;;;;;13.48;2.67;;;3.90;99.90;;;;;;4987331;28;20046;-94
2021/04/16 03:01:58;;;;;;;19.42;2.22;;;3.90;99.90;;;;;;4984379;28;20424;-94
2021/04/16 03:04:24;;;;;;;12.40;2.28;;;3.90;99.90;;;;;;5018673;28;20045;-95
2021/04/16 03:06:53;;;;;;;19.60;2.20;;;4.10;99.90;;;;;;5017696;28;20117;-93
2021/04/16 03:13:04;;;;;;;12.70;2.35;;;4.00;99.90;;;;;;4953495;28;20136;-94
2021/04/16 03:15:31;;;;;;;13.65;2.50;;;3.90;99.90;;;;;;4978980;28;20483;-91
2021/04/16 03:18:04;;;;;;;17.50;3.08;;;3.90;99.90;;;;;;4983801;28;20489;-93
2021/04/16 03:20:30;;;;;;;15.75;2.42;;;4.20;99.90;;;;;;5000199;28;20137;-93
2021/04/16 03:22:56;;;;;;;13.35;3.30;;;3.90;99.90;;;;;;4984133;28;20204;-93
2021/04/16 03:25:22;;;;;;;16.90;2.90;;;3.90;99.90;;;;;;5000665;28;20119;-92
2021/04/16 03:27:48;;;;;;;19.10;2.75;;;3.90;99.90;;;;;;4978731;28;20853;-91
2021/04/16 03:30:19;;;;;;;21.73;2.67;;;3.80;99.90;;;;;;5005837;28;20033;-93
2021/04/16 03:32:44;;;;;;;;;;;3.80;99.90;;;;;;4998815;28;20037;-91
2021/04/16 03:35:12;;;;;;;19.95;2.70;;;3.80;99.90;;;;;;4973628;28;19928;-94
2021/04/16 03:37:38;;;;;;;10.32;2.28;;;3.70;99.90;;;;;;4991462;28;20038;-92
2021/04/16 03:40:05;;;;;;;15.88;2.50;;;3.60;99.90;;;;;;4997007;28;20112;-93
2021/04/16 03:42:31;;;;;;;18.05;2.70;;;3.50;99.90;;;;;;4995978;28;20125;-91
2021/04/16 03:44:57;;;;;;;11.00;2.05;;;3.40;99.90;;;;;;4973895;28;20134;-92
2021/04/16 03:47:23;;;;;;;7.93;2.00;;;3.20;99.90;;;;;;4979477;28;20030;-91
2021/04/16 03:49:49;;;;;;;13.68;2.00;;;3.30;99.90;;;;;;4979046;28;20433;-90
2021/04/16 03:52:15;;;;;;;12.30;2.72;;;3.10;99.90;;;;;;4994366;28;20077;-92
2021/04/16 03:54:41;;;;;;;13.95;2.20;;;3.00;99.90;;;;;;4994153;28;20046;-92
2021/04/16 03:57:09;;;;;;;9.63;2.22;;;3.10;99.90;;;;;;4994864;28;20038;-92
2021/04/16 03:59:35;;;;;;;14.00;3.28;;;3.00;99.90;;;;;;4975657;28;20066;-90
2021/04/16 04:02:03;;;;;;;15.23;2.65;;;3.10;99.90;;;;;;4993816;28;20053;-93
2021/04/16 04:04:29;;;;;;;17.77;3.03;;;3.10;99.90;;;;;;4995425;28;20487;-92
2021/04/16 04:06:55;;;;;;;16.65;2.70;;;3.10;99.90;;;;;;4993926;28;20309;-92
2021/04/16 04:09:22;;;;;;;24.60;2.60;;;3.00;99.90;;;;;;4976256;28;20046;-91
2021/04/16 04:11:51;;;;;;;19.15;3.13;;;3.00;99.90;;;;;;4974400;28;20061;-92
2021/04/16 04:14:17;;;;;;;17.38;2.33;;;2.80;99.90;;;;;;4958859;28;20519;-91
2021/04/16 04:17:03;;;;;;;14.35;2.60;;;2.90;99.90;;;;;;4965377;28;20054;-93
2021/04/16 04:19:33;;;;;;;12.48;2.58;;;2.80;99.90;;;;;;4976663;28;20100;-92
2021/04/16 04:22:04;;;;;;;14.65;2.47;;;2.70;99.90;;;;;;4975286;28;20054;-93
2021/04/16 04:24:33;;;;;;;17.55;2.67;;;2.60;99.90;;;;;;4974420;28;20062;-93
2021/04/16 04:26:59;;;;;;;16.85;2.92;;;2.60;99.90;;;;;;4943141;28;20557;-93
2021/04/16 04:29:26;;;;;;;19.70;2.45;;;2.80;99.90;;;;;;4958856;28;20073;-94
2021/04/16 04:31:54;;;;;;;10.75;2.80;;;2.40;99.90;;;;;;4959144;28;20050;-92
2021/04/16 04:34:25;;;;;;;27.00;3.42;;;2.50;99.90;;;;;;4990108;28;20625;-93
2021/04/16 04:36:54;;;;;;;20.10;3.95;;;2.60;99.90;;;;;;4974605;28;20059;-92
2021/04/16 04:39:22;;;;;;;17.20;2.72;;;2.70;99.90;;;;;;4968481;28;20050;-94
2021/04/16 04:41:48;;;;;;;16.50;2.70;;;2.70;99.90;;;;;;4976596;28;20145;-94
2021/04/16 04:44:17;;;;;;;17.38;2.92;;;3.20;99.90;;;;;;4959069;28;20159;-94
2021/04/16 04:46:43;;;;;;;23.42;3.78;;;2.80;99.90;;;;;;4973766;28;20066;-94
2021/04/16 04:49:09;;;;;;;26.23;2.90;;;2.70;99.90;;;;;;4972338;28;20110;-93
2021/04/16 04:51:37;;;;;;;18.20;3.50;;;2.70;99.90;;;;;;4991738;28;20042;-91
2021/04/16 04:54:05;;;;;;;15.07;2.80;;;2.80;99.90;;;;;;4975947;28;20046;-94
2021/04/16 04:56:37;;;;;;;15.20;3.10;;;2.80;99.90;;;;;;4991717;28;20046;-92
2021/04/16 04:59:07;;;;;;;19.20;2.90;;;2.80;99.90;;;;;;4960142;28;20046;-94
2021/04/16 05:01:35;;;;;;;16.23;2.65;;;2.80;99.90;;;;;;4976110;28;20064;-93
2021/04/16 05:04:01;;;;;;;20.25;3.42;;;3.10;99.90;;;;;;4975338;28;20105;-94
2021/04/16 05:06:27;;;;;;;13.82;3.00;;;2.90;99.90;;;;;;4992564;28;20054;-94
2021/04/16 05:08:53;;;;;;;22.90;3.38;;;3.00;99.90;;;;;;4974879;28;20084;-92
2021/04/16 05:11:22;;;;;;;14.48;2.72;;;3.70;99.90;;;;;;4976017;28;20070;-95
2021/04/16 05:13:52;;;;;;;10.50;2.55;;;3.20;99.90;;;;;;4974372;28;20054;-94
2021/04/16 05:16:18;;;;;;;12.73;2.78;;;3.30;99.90;;;;;;4958914;28;20535;-94
2021/04/16 05:18:48;;;;;;;19.13;2.92;;;3.40;99.90;;;;;;4990774;28;20038;-94
2021/04/16 05:21:14;;;;;;;8.75;2.47;;;3.60;99.90;;;;;;4927161;28;20451;-95
2021/04/16 05:23:40;;;;;;;25.17;3.50;;;3.70;99.90;;;;;;4991052;28;20101;-93
2021/04/16 05:26:07;;;;;;;14.38;2.88;;;3.60;99.90;;;;;;4992866;28;20046;-95
2021/04/16 05:28:33;;;;;;;17.15;3.20;;;3.70;99.90;;;;;;4992129;28;20043;-94
2021/04/16 05:30:58;;;;;;;11.02;2.80;;;4.10;99.90;;;;;;4992855;28;20046;-94
2021/04/16 05:33:24;;;;;;;20.77;4.32;;;3.90;99.90;;;;;;4975632;28;20066;-94
2021/04/16 05:35:52;;;;;;;18.52;3.97;;;3.90;99.90;;;;;;5004575;28;20107;-94
2021/04/16 05:38:19;;;;;;;8.88;3.40;;;4.00;99.90;;;;;;4994644;28;20034;-92
2021/04/16 05:40:50;;;;;;;19.15;3.47;;;4.10;99.90;;;;;;4978028;28;20481;-94
2021/04/16 05:43:16;;;;;;;9.50;3.33;;;4.10;99.90;;;;;;4978213;28;20060;-93
2021/04/16 05:45:53;;;;;;;17.60;2.67;;;4.20;99.90;;;;;;4995205;28;20048;-93
2021/04/16 05:48:34;;;;;;;10.52;3.60;;;4.30;99.90;;;;;;5010678;28;20045;-94
2021/04/16 05:51:09;;;;;;;17.70;2.97;;;4.40;99.90;;;;;;4959675;28;20105;-94
2021/04/16 05:53:38;;;;;;;15.55;2.80;;;4.30;99.90;;;;;;4978331;28;20045;-94
2021/04/16 05:56:05;;;;;;;12.38;2.60;;;4.30;99.90;;;;;;4993590;28;20053;-95
2021/04/16 05:58:31;;;;;;;7.60;2.60;;;4.40;99.90;;;;;;4991862;28;20041;-92
2021/04/16 06:00:57;;;;;;;14.88;2.70;;;4.40;99.90;;;;;;4959634;28;20077;-91
2021/04/16 06:03:23;;;;;;;17.25;3.70;;;4.50;99.90;;;;;;4993052;28;20548;-91
2021/04/16 06:05:49;;;;;;;19.55;3.10;;;4.70;99.90;;;;;;4990523;28;20050;-92
2021/04/16 06:08:18;;;;;;;21.30;3.58;;;4.70;99.90;;;;;;4993361;28;20045;-94
2021/04/16 06:10:45;;;;;;;20.40;2.80;;;5.00;99.90;;;;;;4977503;28;20046;-92
2021/04/16 06:13:14;;;;;;;20.05;3.92;;;4.90;99.90;;;;;;4978533;28;20061;-93
2021/04/16 06:15:39;;;;;;;20.27;2.72;;;4.70;99.90;;;;;;4977758;28;20038;-92
2021/04/16 06:18:05;;;;;;;10.27;2.47;;;4.80;99.90;;;;;;4993642;28;20059;-92
2021/04/16 06:20:31;;;;;;;11.65;2.58;;;4.90;99.90;;;;;;4993388;28;20100;-93
2021/04/16 06:23:00;;;;;;;9.48;2.70;;;4.90;99.90;;;;;;4993113;28;20044;-91
2021/04/16 06:25:32;;;;;;;12.93;2.95;;;4.90;99.90;;;;;;4993801;28;20505;-93
2021/04/16 06:27:59;;;;;;;13.05;2.53;;;5.10;99.90;;;;;;4976714;28;20064;-94
2021/04/16 06:30:27;;;;;;;13.82;2.50;;;5.20;99.90;;;;;;4978019;28;20073;-92
2021/04/16 06:33:26;;;;;;;7.70;2.45;;;5.20;99.90;;;;;;5011231;28;20379;-92
2021/04/16 06:35:59;;;;;;;15.75;2.38;;;5.30;99.90;;;;;;4991459;28;20120;-90
2021/04/16 06:38:34;;;;;;;13.07;2.28;;;5.40;99.90;;;;;;4996770;28;20038;-92
2021/04/16 06:41:02;;;;;;;9.77;2.42;;;5.40;99.90;;;;;;4992210;28;20045;-92
2021/04/16 06:43:44;;;;;;;10.60;2.25;;;5.50;99.90;;;;;;4992836;28;20053;-92
2021/04/16 06:46:16;;;;;;;18.15;3.25;;;5.50;99.90;;;;;;4992889;28;20052;-92
2021/04/16 06:48:42;;;;;;;10.82;2.00;;;5.60;99.90;;;;;;4993455;28;20068;-92
2021/04/16 06:51:10;;;;;;;5.13;1.75;;;5.70;99.90;;;;;;4976151;28;20971;-93
2021/04/16 06:53:44;;;;;;;7.25;2.05;;;5.70;99.90;;;;;;4992681;28;20056;-91
2021/04/16 06:56:25;;;;;;;13.98;1.90;;;5.90;99.90;;;;;;4992519;28;20030;-95
2021/04/16 06:59:08;;;;;;;6.28;1.60;;;6.00;99.90;;;;;;4979198;28;20038;-92
2021/04/16 07:01:52;;;;;;;10.48;2.15;;;6.10;99.90;;;;;;4993496;28;20466;-93
2021/04/16 07:04:31;;;;;;;7.63;1.58;;;6.20;99.90;;;;;;4982988;28;20537;-93
2021/04/16 07:07:02;;;;;;;6.60;1.77;;;6.20;99.90;;;;;;4991883;28;20070;-93
2021/04/16 07:09:42;;;;;;;6.93;1.48;;;6.30;99.90;;;;;;4973754;28;20050;-93
2021/04/16 07:12:20;;;;;;;8.13;1.95;;;6.40;99.90;;;;;;4967455;28;20041;-92
2021/04/16 07:14:50;;;;;;;4.95;0.80;;;6.50;99.90;;;;;;4972138;28;20402;-92
2021/04/16 07:17:28;;;;;;;7.15;1.80;;;6.60;99.90;;;;;;4979335;28;20135;-93
2021/04/16 07:19:56;;;;;;;6.10;2.08;;;6.70;99.90;;;;;;4984163;28;20042;-93
2021/04/16 07:22:40;;;;;;;10.63;1.83;;;6.80;99.90;;;;;;4969836;28;20042;-91
2021/04/16 07:25:22;;;;;;;8.77;1.83;;;6.80;99.90;;;;;;4976760;28;20038;-90
2021/04/16 07:27:51;;;;;;;7.18;2.00;;;6.90;99.90;;;;;;4975495;28;20165;-90
2021/04/16 07:30:33;;;;;;;4.90;1.45;;;7.00;99.90;;;;;;5009789;28;20038;-90
2021/04/16 07:32:59;;;;;;;6.55;1.48;;;7.00;99.90;;;;;;4990999;28;20052;-89
2021/04/16 07:35:32;;;;;;;6.38;1.67;;;7.00;99.90;;;;;;4974481;28;20054;-91
2021/04/16 07:38:21;;;;;;;11.77;2.72;;;7.10;99.90;;;;;;5000186;28;20042;-91
2021/04/16 07:40:47;;;;;;;2.50;1.20;;;7.20;99.90;;;;;;4989123;28;20037;-93
2021/04/16 07:43:47;;;;;;;6.88;1.67;;;7.30;99.90;;;;;;4974058;28;20429;-93
2021/04/16 07:46:42;;;;;;;5.45;0.90;;;7.40;99.90;;;;;;4977382;28;20514;-92
2021/04/16 07:49:14;;;;;;;1.55;0.63;;;7.50;99.90;;;;;;4993937;28;20879;-90
2021/04/16 07:51:47;;;;;;;2.42;0.82;;;7.70;99.90;;;;;;4992552;28;20181;-92
2021/04/16 07:54:22;;;;;;;2.22;0.98;;;7.70;99.90;;;;;;4976654;28;20877;-91
2021/04/16 07:57:11;;;;;;;4.65;0.80;;;7.80;99.90;;;;;;4982062;28;20543;-90
2021/04/16 07:59:55;;;;;;;4.60;0.85;;;7.80;99.90;;;;;;5007801;28;20153;-90
2021/04/16 08:02:27;;;;;;;4.65;0.98;;;7.90;99.90;;;;;;4979333;28;20107;-91
2021/04/16 08:04:53;;;;;;;6.43;1.45;;;8.00;99.90;;;;;;4980330;28;20457;-90
2021/04/16 08:07:26;;;;;;;3.55;1.00;;;8.10;99.90;;;;;;4994735;28;20038;-92
2021/04/16 08:09:55;;;;;;;5.88;0.95;;;8.10;99.90;;;;;;4994341;28;20038;-90
2021/04/16 08:12:40;;;;;;;2.08;1.00;;;8.20;99.90;;;;;;4980938;28;20054;-92
2021/04/16 08:15:36;;;;;;;1.30;1.08;;;8.20;99.90;;;;;;4994222;28;20042;-91
2021/04/16 08:18:31;;;;;;;2.50;1.15;;;8.20;99.90;;;;;;4981832;28;20053;-92
2021/04/16 08:21:08;;;;;;;6.65;1.77;;;8.20;99.90;;;;;;4975399;28;20623;-92
2021/04/16 08:23:57;;;;;;;1.53;1.27;;;8.30;99.90;;;;;;4978992;28;20054;-91
2021/04/16 08:26:28;;;;;;;10.73;1.70;;;8.30;99.90;;;;;;4978629;28;20046;-92
2021/04/16 08:29:08;;;;;;;3.17;1.70;;;8.40;99.90;;;;;;4994408;28;20121;-90
2021/04/16 08:31:52;;;;;;;5.10;1.70;;;8.50;99.90;;;;;;4978844;28;20140;-92
2021/04/16 08:34:29;;;;;;;3.17;1.10;;;8.50;99.90;;;;;;4994847;28;20449;-92
2021/04/16 08:36:58;;;;;;;6.47;1.10;;;8.50;99.90;;;;;;4993612;28;20056;-91
2021/04/16 08:39:41;;;;;;;1.88;0.80;;;8.60;99.90;;;;;;4978213;28;20045;-92
2021/04/16 08:42:15;;;;;;;3.22;1.38;;;8.60;99.90;;;;;;4978029;28;20053;-92
2021/04/16 08:44:44;;;;;;;7.60;2.58;;;8.60;99.90;;;;;;4993868;28;20060;-92
2021/04/16 08:47:27;;;;;;;9.80;1.88;;;8.60;99.90;;;;;;5010237;28;20038;-91
2021/04/16 08:49:55;;;;;;;1.20;0.63;;;8.60;99.90;;;;;;4974275;28;20053;-91
2021/04/16 08:52:31;;;;;;;4.75;1.80;;;8.60;99.90;;;;;;4977545;28;20053;-91
2021/04/16 08:55:13;;;;;;;5.90;1.02;;;8.70;99.90;;;;;;4993048;28;20092;-89
2021/04/16 08:57:51;;;;;;;4.75;1.90;;;8.70;99.90;;;;;;4977083;28;20180;-91
2021/04/16 09:00:40;;;;;;;7.50;1.40;;;8.80;99.90;;;;;;4977016;28;20520;-91
2021/04/16 09:03:17;;;;;;;;;;;8.80;99.90;;;;;;4977276;28;20225;-92
2021/04/16 09:06:01;;;;;;;5.88;1.65;;;8.80;99.90;;;;;;4965275;28;19928;-92
2021/04/16 09:08:38;;;;;;;2.40;1.58;;;8.90;99.90;;;;;;4977863;28;20104;-95
2021/04/16 09:11:17;;;;;;;7.05;1.88;;;8.90;99.90;;;;;;4977795;28;20489;-93
2021/04/16 09:13:43;;;;;;;8.77;2.42;;;9.00;99.90;;;;;;4978568;28;20050;-95
2021/04/16 09:16:21;;;;;;;4.70;1.80;;;9.00;99.90;;;;;;5010677;28;20045;-92
2021/04/16 09:18:53;;;;;;;7.07;1.77;;;8.90;99.90;;;;;;4977925;28;20104;-94
2021/04/16 09:21:29;;;;;;;5.22;1.63;;;9.00;99.90;;;;;;4977108;28;20068;-94
2021/04/16 09:24:11;;;;;;;5.05;1.70;;;9.00;99.90;;;;;;4994005;28;20046;-92
2021/04/16 09:26:43;;;;;;;7.45;1.90;;;9.10;99.90;;;;;;4965552;28;20068;-93
2021/04/16 09:29:37;;;;;;;7.15;2.78;;;9.10;99.90;;;;;;4976941;28;20046;-92
2021/04/16 09:32:24;;;;;;;12.32;2.40;;;9.10;99.90;;;;;;4968751;28;20478;-94
2021/04/16 09:34:53;;;;;;;8.07;1.90;;;9.30;99.90;;;;;;4976668;28;20050;-93
2021/04/16 09:37:30;;;;;;;16.13;2.67;;;9.20;99.90;;;;;;4991217;28;20034;-93
2021/04/16 09:40:20;;;;;;;9.32;1.35;;;9.30;99.90;;;;;;4977759;28;20080;-94
2021/04/16 09:43:18;;;;;;;4.82;2.30;;;9.10;99.90;;;;;;4977143;28;20056;-93
2021/04/16 09:45:46;;;;;;;7.43;2.03;;;9.10;99.90;;;;;;4977497;28;20214;-94
2021/04/16 09:48:23;;;;;;;7.07;2.55;;;9.10;99.90;;;;;;4976262;28;20053;-93
2021/04/16 09:51:14;;;;;;;11.93;2.20;;;9.10;99.90;;;;;;4993190;28;20042;-92
2021/04/16 09:53:40;;;;;;;9.15;2.00;;;9.20;99.90;;;;;;4950953;28;20196;-93
2021/04/16 09:56:11;;;;;;;10.35;2.08;;;9.20;99.90;;;;;;4957240;28;20141;-94
2021/04/16 09:58:42;;;;;;;4.93;1.63;;;9.20;99.90;;;;;;4992388;28;20049;-94
2021/04/16 10:01:17;;;;;;;5.50;1.50;;;9.20;99.90;;;;;;4976420;28;20062;-93
2021/04/16 10:03:49;;;;;;;9.63;1.58;;;9.10;99.90;;;;;;4973082;28;20099;-94
2021/04/16 10:06:38;;;;;;;7.72;2.28;;;9.10;99.90;;;;;;4976254;28;20050;-94
2021/04/16 10:09:16;;;;;;;5.32;2.25;;;9.00;99.90;;;;;;4978573;28;20486;-92
2021/04/16 10:12:07;;;;;;;7.65;2.10;;;9.10;99.90;;;;;;4977400;28;20050;-95
2021/04/16 10:14:38;;;;;;;16.08;2.45;;;9.10;99.90;;;;;;4993830;28;20476;-94
2021/04/16 10:17:13;;;;;;;9.95;2.75;;;9.00;99.90;;;;;;4976133;28;20046;-92
2021/04/16 10:19:46;;;;;;;28.50;3.00;;;9.00;99.90;;;;;;4977002;28;20057;-93
2021/04/16 10:22:12;;;;;;;15.18;3.05;;;9.10;99.90;;;;;;4976359;28;20429;-94
2021/04/16 10:25:54;;;;;;;15.88;3.08;;;9.20;99.90;;;;;;4977688;28;20077;-94
2021/04/16 10:28:50;;;;;;;11.95;3.33;;;9.10;99.90;;;;;;4991762;28;20084;-92
2021/04/16 12:40:06;;;;;;;3.58;1.00;;;11.00;92.30;;;;;;4994109;28;19922;-92
2021/04/16 12:42:43;;;;;;;4.13;1.13;;;10.90;95.60;;;;;;4993757;28;20061;-92
2021/04/16 12:45:13;;;;;;;2.60;0.90;;;11.00;97.40;;;;;;4978400;28;20096;-90
2021/04/16 12:47:40;;;;;;;1.48;0.98;;;11.00;95.90;;;;;;4977470;28;20066;-92
2021/04/16 12:50:07;;;;;;;5.38;0.90;;;11.00;97.80;;;;;;4978103;28;20046;-92
2021/04/16 12:52:42;;;;;;;1.15;0.70;;;11.00;93.50;;;;;;4994549;28;20041;-92
2021/04/16 12:55:11;;;;;;;1.13;0.80;;;11.00;90.20;;;;;;4978184;28;20069;-92
2021/04/16 12:57:44;;;;;;;2.00;0.93;;;10.90;93.30;;;;;;4977287;28;20045;-92
2021/04/16 13:00:20;;;;;;;1.30;0.85;;;10.90;90.50;;;;;;4978153;28;20053;-92
2021/04/16 13:02:46;;;;;;;3.42;1.25;;;10.90;87.30;;;;;;4978314;28;20064;-91
2021/04/16 13:05:16;;;;;;;1.77;1.08;;;11.00;95.00;;;;;;4977626;28;20054;-92
2021/04/16 13:07:42;;;;;;;2.72;1.08;;;11.10;91.00;;;;;;4977726;28;20199;-91
2021/04/16 13:10:37;;;;;;;0.98;0.95;;;11.10;96.20;;;;;;4973781;28;20042;-91
2021/04/16 13:13:16;;;;;;;2.80;1.25;;;11.20;94.80;;;;;;4994290;28;20068;-92
2021/04/16 13:15:42;;;;;;;2.42;1.00;;;11.10;95.10;;;;;;4977198;28;20054;-92
2021/04/16 13:18:23;;;;;;;5.82;1.00;;;11.20;90.30;;;;;;4976574;28;20132;-93
2021/04/16 13:20:59;;;;;;;7.68;1.08;;;11.20;91.80;;;;;;4977572;28;20057;-93
2021/04/16 13:23:28;;;;;;;1.80;0.90;;;11.10;84.20;;;;;;4976848;28;20052;-92
2021/04/16 13:25:56;;;;;;;2.72;1.20;;;11.20;82.30;;;;;;4961375;28;20050;-91
2021/04/16 13:28:43;;;;;;;2.30;0.95;;;11.30;92.80;;;;;;4977319;28;20116;-93
2021/04/16 13:31:10;;;;;;;1.92;0.75;;;11.30;86.80;;;;;;4977498;28;20144;-92
2021/04/16 13:33:46;;;;;;;0.98;0.80;;;11.20;91.80;;;;;;4976912;28;20481;-93
2021/04/16 13:36:25;;;;;;;7.30;1.25;;;11.10;74.30;;;;;;4961038;28;20050;-92
2021/04/16 13:39:12;;;;;;;8.35;1.05;;;11.10;81.20;;;;;;4977822;28;20050;-92
2021/04/16 13:41:44;;;;;;;4.20;1.50;;;11.10;72.70;;;;;;4975413;28;20058;-92
2021/04/16 13:44:10;;;;;;;3.30;1.23;;;11.10;75.90;;;;;;4982322;28;20402;-92
2021/04/16 13:46:39;;;;;;;8.57;1.10;;;10.90;82.00;;;;;;4979460;28;20108;-91
2021/04/16 13:49:15;;;;;;;4.60;1.00;;;11.10;83.90;;;;;;4976917;28;20046;-94
2021/04/16 13:51:41;;;;;;;0.88;0.70;;;11.20;86.50;;;;;;4966587;28;20638;-92
2021/04/16 13:54:09;;;;;;;1.00;0.75;;;11.30;77.90;;;;;;4976606;28;20594;-94
2021/04/16 13:56:38;;;;;;;1.35;0.85;;;11.30;75.90;;;;;;4975601;28;20049;-92
2021/04/16 13:59:04;;;;;;;2.13;0.73;;;11.30;79.30;;;;;;4992664;28;20044;-93
2021/04/16 14:01:33;;;;;;;2.65;1.00;;;11.20;75.20;;;;;;4992172;28;20038;-92
2021/04/16 14:04:05;;;;;;;7.05;1.33;;;11.20;79.40;;;;;;4976255;28;20061;-92
2021/04/16 14:06:37;;;;;;;1.65;0.60;;;11.30;76.90;;;;;;4975396;28;20053;-91
2021/04/16 14:09:13;;;;;;;2.92;1.02;;;11.10;70.20;;;;;;4959770;28;20433;-93
2021/04/16 14:11:40;;;;;;;4.03;1.10;;;11.20;67.20;;;;;;4972304;28;20833;-93
2021/04/16 14:14:13;;;;;;;0.82;0.65;;;11.10;70.50;;;;;;4989498;28;20046;-91
2021/04/16 14:16:41;;;;;;;1.02;0.80;;;11.10;66.80;;;;;;4989297;28;20621;-93
2021/04/16 14:19:17;;;;;;;2.97;1.02;;;11.10;79.80;;;;;;5007096;28;20038;-95
2021/04/16 14:21:45;;;;;;;3.83;1.30;;;11.00;74.30;;;;;;4982833;28;20049;-94
2021/04/16 14:24:16;;;;;;;5.22;1.20;;;11.00;80.30;;;;;;4968455;28;20382;-94
2021/04/16 14:26:50;;;;;;;5.78;1.13;;;11.00;76.40;;;;;;4993090;28;20097;-92
2021/04/16 14:29:26;;;;;;;1.40;0.63;;;11.00;77.60;;;;;;4968849;28;20493;-94
2021/04/16 14:32:01;;;;;;;4.05;1.30;;;11.10;66.00;;;;;;4954708;28;20045;-94
2021/04/16 14:34:33;;;;;;;1.33;0.68;;;11.10;77.50;;;;;;4975016;28;20050;-92
2021/04/16 14:37:02;;;;;;;1.63;1.00;;;11.00;68.80;;;;;;4971194;28;20065;-94
2021/04/16 14:39:32;;;;;;;2.10;0.70;;;11.00;67.90;;;;;;4971129;28;20057;-95
2021/04/16 14:42:06;;;;;;;2.20;1.27;;;11.00;64.10;;;;;;4971287;28;20057;-96
2021/04/16 14:44:53;;;;;;;2.42;1.30;;;10.90;75.80;;;;;;4955638;28;20050;-95
2021/04/16 14:47:27;;;;;;;2.80;1.50;;;11.00;78.00;;;;;;4972943;28;20104;-93
2021/04/16 14:49:56;;;;;;;4.40;1.77;;;11.00;85.70;;;;;;4971591;28;20050;-96
2021/04/16 14:52:49;;;;;;;4.13;1.80;;;11.00;83.90;;;;;;4971772;28;20065;-93
2021/04/16 14:55:21;;;;;;;3.78;1.80;;;11.20;86.20;;;;;;4982930;28;20646;-95
2021/04/16 14:57:47;;;;;;;2.53;1.83;;;11.10;92.00;;;;;;4971208;28;20043;-92
2021/04/16 15:00:29;;;;;;;6.75;1.92;;;10.90;91.20;;;;;;4978112;28;20054;-95
2021/04/16 15:03:06;;;;;;;1.80;1.40;;;10.90;87.30;;;;;;4987616;28;20046;-94
2021/04/16 15:05:44;;;;;;;1.42;1.33;;;10.80;89.80;;;;;;4954424;28;20054;-95
2021/04/16 15:08:30;;;;;;;2.38;1.35;;;10.80;84.90;;;;;;4970732;28;20054;-95
2021/04/16 15:11:40;;;;;;;;;;;;;;;;;;;;;
2021/04/16 15:14:29;;;;;;;3.42;1.67;;;10.80;78.40;;;;;;4939017;28;20039;-96
2021/04/16 15:17:21;;;;;;;4.57;1.73;;;10.80;88.30;;;;;;4922260;29;20047;-93
2021/04/16 15:19:52;;;;;;;4.68;2.15;;;10.80;86.70;;;;;;4912115;29;20074;-95
2021/04/16 15:22:31;;;;;;;3.05;1.98;;;10.80;89.70;;;;;;4897509;29;20487;-95
2021/04/16 15:25:05;;;;;;;3.75;1.77;;;10.80;76.40;;;;;;4923547;28;20081;-94
2021/04/16 15:27:42;;;;;;;1.48;1.13;;;10.80;80.50;;;;;;4971215;28;20450;-92
2021/04/16 15:30:24;;;;;;;6.13;1.80;;;10.80;83.00;;;;;;4961518;28;20062;-92
2021/04/16 15:32:52;;;;;;;3.70;2.13;;;10.70;94.40;;;;;;4972135;28;20050;-95